Time;durP1;ratioP1;P1;durP2;ratioP2;P2;SDS_P1;SDS_P2;PMS_P1;PMS_P2;Temp;Humidity;BMP_temperature;BMP_pressure;BME280_temperature;BME280_humidity;BME280_pressure;Samples;Min_cycle;Max_cycle;Signal;HPM_P1;HPM_P2
2022/07/07 00:02:10;;;;;;;;;;;;;;;19.12;100.00;97401.78;5014716;28;20398;-80
2022/07/07 00:04:36;;;;;;;;;;;;;;;19.17;100.00;97407.59;5012007;28;19919;-81
2022/07/07 00:07:01;;;;;;;;;;;;;;;19.17;100.00;97414.88;5014724;28;19920;-81
2022/07/07 00:09:29;;;;;;;;;;;;;;;19.28;100.00;97418.25;5014628;28;20333;-81
2022/07/07 00:11:55;;;;;;;;;;;;;;;19.27;100.00;97421.97;5014856;28;19967;-81
2022/07/07 00:14:20;;;;;;;;;;;;;;;19.21;100.00;97410.88;5030968;28;20409;-80
2022/07/07 00:16:46;;;;;;;;;;;;;;;19.19;100.00;97418.31;5011213;28;19920;-81
2022/07/07 00:19:11;;;;;;;;;;;;;;;19.22;100.00;97412.59;5014427;28;20276;-81
2022/07/07 00:21:37;;;;;;;;;;;;;;;19.26;100.00;97411.25;5014465;28;19952;-81
2022/07/07 00:24:02;;;;;;;;;;;;;;;19.20;100.00;97410.00;5014378;28;19917;-80
2022/07/07 00:26:30;;;;;;;;;;;;;;;19.27;100.00;97404.84;5013923;28;20000;-79
2022/07/07 00:28:55;;;;;;;;;;;;;;;19.26;100.00;97411.25;5013791;28;20393;-80
2022/07/07 00:31:20;;;;;;;;;;;;;;;19.23;100.00;97419.69;5014525;28;19972;-81
2022/07/07 00:33:46;;;;;;;;;;;;;;;19.26;100.00;97414.81;5013108;28;19921;-81
2022/07/07 00:36:11;;;;;;;;;;;;;;;19.27;100.00;97412.97;5011023;28;19913;-81
2022/07/07 00:38:37;;;;;;;;;;;;;;;19.22;100.00;97420.72;5027388;28;19913;-81
2022/07/07 00:41:02;;;;;;;;;;;;;;;19.11;100.00;97418.19;5013783;28;19912;-80
2022/07/07 00:43:27;;;;;;;;;;;;;;;19.10;100.00;97424.66;5013983;28;19917;-81
2022/07/07 00:45:53;;;;;;;;;;;;;;;19.09;100.00;97417.50;5013841;28;19946;-80
2022/07/07 00:48:19;;;;;;;;;;;;;;;19.01;100.00;97415.53;5014137;28;19909;-80
2022/07/07 00:50:45;;;;;;;;;;;;;;;18.82;100.00;97413.78;5013405;28;19913;-81
2022/07/07 00:53:10;;;;;;;;;;;;;;;18.80;100.00;97404.94;5013934;28;19913;-81
2022/07/07 00:55:35;;;;;;;;;;;;;;;18.76;100.00;97399.97;5010745;28;19964;-81
2022/07/07 00:58:01;;;;;;;;;;;;;;;18.67;100.00;97404.41;5013635;28;20086;-81
2022/07/07 01:00:26;;;;;;;;;;;;;;;18.63;100.00;97405.72;5012411;28;19913;-81
2022/07/07 01:02:52;;;;;;;;;;;;;;;18.51;100.00;97401.50;5013987;28;19976;-81
2022/07/07 01:05:17;;;;;;;;;;;;;;;18.54;100.00;97403.91;5014382;28;20000;-79
2022/07/07 01:07:42;;;;;;;;;;;;;;;18.44;100.00;97400.34;5011117;28;19917;-79
2022/07/07 01:10:08;;;;;;;;;;;;;;;18.40;100.00;97409.75;5013530;28;20002;-80
2022/07/07 01:12:34;;;;;;;;;;;;;;;18.33;100.00;97412.19;5012667;28;19913;-79
2022/07/07 01:14:59;;;;;;;;;;;;;;;18.31;100.00;97405.22;5012327;28;20020;-80
2022/07/07 01:17:24;;;;;;;;;;;;;;;18.24;100.00;97407.66;5010333;28;20074;-79
2022/07/07 01:19:50;;;;;;;;;;;;;;;18.20;100.00;97408.97;5013540;28;19917;-81
2022/07/07 01:22:16;;;;;;;;;;;;;;;18.29;100.00;97418.06;5013747;28;19917;-80
2022/07/07 01:24:41;;;;;;;;;;;;;;;18.26;100.00;97412.94;5013490;28;19916;-80
2022/07/07 01:27:09;;;;;;;;;;;;;;;18.16;100.00;97406.69;5012785;28;19970;-80
2022/07/07 01:29:36;;;;;;;;;;;;;;;18.25;100.00;97422.03;5014304;28;19916;-80
2022/07/07 01:32:02;;;;;;;;;;;;;;;18.25;100.00;97417.50;5009346;28;19917;-80
2022/07/07 01:34:27;;;;;;;;;;;;;;;18.13;100.00;97415.09;5010497;28;19920;-80
2022/07/07 01:36:52;;;;;;;;;;;;;;;18.18;100.00;97421.78;5019131;28;19913;-81
2022/07/07 01:39:18;;;;;;;;;;;;;;;18.17;100.00;97420.09;5006257;28;19917;-80
2022/07/07 01:41:43;;;;;;;;;;;;;;;18.12;100.00;97419.66;5002048;28;19917;-79
2022/07/07 01:44:08;;;;;;;;;;;;;;;18.19;100.00;97423.50;5003166;28;20339;-81
2022/07/07 01:46:34;;;;;;;;;;;;;;;18.25;100.00;97408.50;5000198;28;19920;-81
2022/07/07 01:48:59;;;;;;;;;;;;;;;18.19;100.00;97418.06;5009507;28;20341;-81
2022/07/07 01:51:25;;;;;;;;;;;;;;;18.27;100.00;97415.47;5006855;28;19917;-81
2022/07/07 01:53:50;;;;;;;;;;;;;;;18.35;100.00;97417.47;5006315;28;20285;-81
2022/07/07 01:56:15;;;;;;;;;;;;;;;18.36;100.00;97413.78;5010153;28;19913;-81
2022/07/07 01:58:41;;;;;;;;;;;;;;;18.33;100.00;97419.50;4993783;28;19972;-81
2022/07/07 02:01:06;;;;;;;;;;;;;;;18.31;100.00;97419.63;5007484;28;19920;-81
2022/07/07 02:03:32;;;;;;;;;;;;;;;18.31;100.00;97416.03;5014032;28;19989;-81
2022/07/07 02:05:57;;;;;;;;;;;;;;;18.40;100.00;97426.84;5002289;28;19921;-82
2022/07/07 02:08:22;;;;;;;;;;;;;;;18.57;100.00;97414.47;5013484;28;19921;-80
2022/07/07 02:13:32;;;;;;;;;;;;;;;18.39;100.00;97411.59;4999813;28;19963;-80
2022/07/07 02:15:57;;;;;;;;;;;;;;;18.41;100.00;97412.34;5005716;28;19913;-79
2022/07/07 02:18:23;;;;;;;;;;;;;;;18.55;100.00;97407.47;5005201;28;20253;-81
2022/07/07 02:20:48;;;;;;;;;;;;;;;18.52;100.00;97403.19;5013576;28;19914;-80
2022/07/07 02:23:13;;;;;;;;;;;;;;;18.44;100.00;97405.75;4996948;28;19971;-81
2022/07/07 02:25:39;;;;;;;;;;;;;;;18.38;100.00;97411.75;5013187;28;19914;-81
2022/07/07 02:28:04;;;;;;;;;;;;;;;18.27;100.00;97410.06;5013192;28;19914;-81
2022/07/07 02:30:31;;;;;;;;;;;;;;;18.18;100.00;97404.69;5009716;28;20375;-81
2022/07/07 02:32:56;;;;;;;;;;;;;;;18.28;100.00;97410.91;5014551;28;19925;-81
2022/07/07 02:35:22;;;;;;;;;;;;;;;18.21;100.00;97416.06;4997086;28;19918;-81
2022/07/07 02:37:50;;;;;;;;;;;;;;;18.23;100.00;97408.66;5007657;28;19909;-80
2022/07/07 02:40:16;;;;;;;;;;;;;;;18.39;100.00;97413.47;5037449;28;19924;-80
2022/07/07 02:42:41;;;;;;;;;;;;;;;18.43;100.00;97409.47;5002559;28;19921;-82
2022/07/07 02:45:07;;;;;;;;;;;;;;;18.48;100.00;97409.88;5005614;28;19945;-80
2022/07/07 02:47:32;;;;;;;;;;;;;;;18.52;100.00;97405.91;5041973;28;20408;-81
2022/07/07 02:49:57;;;;;;;;;;;;;;;18.48;100.00;97404.47;5004732;28;19944;-80
2022/07/07 02:52:23;;;;;;;;;;;;;;;18.47;100.00;97405.47;5000903;28;19978;-81
2022/07/07 02:54:48;;;;;;;;;;;;;;;18.57;100.00;97395.50;5039643;28;19917;-79
2022/07/07 02:57:13;;;;;;;;;;;;;;;18.61;100.00;97398.75;5042291;28;19920;-81
2022/07/07 02:59:39;;;;;;;;;;;;;;;18.58;100.00;97397.19;5033504;28;19921;-80
2022/07/07 03:02:04;;;;;;;;;;;;;;;18.55;100.00;97400.19;5033335;28;20309;-81
2022/07/07 03:04:30;;;;;;;;;;;;;;;18.63;100.00;97407.59;5000580;28;20015;-80
2022/07/07 03:06:55;;;;;;;;;;;;;;;18.70;100.00;97406.81;5007314;28;19915;-81
2022/07/07 03:09:20;;;;;;;;;;;;;;;18.74;100.00;97408.25;5000327;28;20404;-81
2022/07/07 03:11:46;;;;;;;;;;;;;;;18.74;100.00;97408.25;5041565;28;19977;-81
2022/07/07 03:14:11;;;;;;;;;;;;;;;18.83;100.00;97411.91;5036736;28;20391;-81
2022/07/07 03:16:37;;;;;;;;;;;;;;;18.75;100.00;97404.53;5032994;28;19929;-80
2022/07/07 03:19:02;;;;;;;;;;;;;;;18.69;100.00;97407.84;5037298;28;20377;-80
2022/07/07 03:21:27;;;;;;;;;;;;;;;18.55;100.00;97413.72;5012153;28;19920;-81
2022/07/07 03:23:53;;;;;;;;;;;;;;;18.49;100.00;97410.75;4995870;28;19964;-81
2022/07/07 03:26:18;;;;;;;;;;;;;;;18.40;100.00;97413.31;4995941;28;19913;-81
2022/07/07 03:28:43;;;;;;;;;;;;;;;18.27;100.00;97410.06;5000338;28;19913;-81
2022/07/07 03:31:09;;;;;;;;;;;;;;;18.22;100.00;97406.09;5004064;28;19914;-81
2022/07/07 03:33:34;;;;;;;;;;;;;;;18.12;100.00;97405.28;5006501;28;19972;-81
2022/07/07 03:36:00;;;;;;;;;;;;;;;18.03;100.00;97406.97;5006205;28;19920;-81
2022/07/07 03:38:25;;;;;;;;;;;;;;;18.01;100.00;97410.84;5005479;28;19928;-81
2022/07/07 03:40:50;;;;;;;;;;;;;;;18.12;100.00;97411.53;4995281;28;19920;-80
2022/07/07 03:43:16;;;;;;;;;;;;;;;18.07;100.00;97407.53;5006592;28;20406;-80
2022/07/07 03:45:41;;;;;;;;;;;;;;;18.02;100.00;97410.69;4994998;28;19924;-80
2022/07/07 03:48:07;;;;;;;;;;;;;;;17.96;100.00;97411.28;5042187;28;20427;-80
2022/07/07 03:50:32;;;;;;;;;;;;;;;18.07;100.00;97421.94;5011564;28;20012;-82
2022/07/07 03:52:58;;;;;;;;;;;;;;;18.11;100.00;97415.25;4995506;28;20448;-79
2022/07/07 03:55:23;;;;;;;;;;;;;;;18.21;100.00;97426.91;4999009;28;19956;-80
2022/07/07 03:57:49;;;;;;;;;;;;;;;18.22;100.00;97428.63;4995173;28;19955;-80
2022/07/07 04:00:14;;;;;;;;;;;;;;;18.37;100.00;97423.59;4995022;28;19949;-81
2022/07/07 04:02:40;;;;;;;;;;;;;;;18.46;100.00;97419.16;4994790;28;19918;-80
2022/07/07 04:05:05;;;;;;;;;;;;;;;18.52;100.00;97424.03;5009576;28;19913;-80
2022/07/07 04:07:33;;;;;;;;;;;;;;;18.68;100.00;97430.53;4994705;28;19913;-80
2022/07/07 04:09:59;;;;;;;;;;;;;;;18.79;100.00;97419.50;5010965;28;20277;-79
2022/07/07 04:12:25;;;;;;;;;;;;;;;18.85;100.00;97421.63;4995153;28;19909;-79
2022/07/07 04:14:50;;;;;;;;;;;;;;;18.90;100.00;97427.44;4994880;28;20004;-78
2022/07/07 04:17:15;;;;;;;;;;;;;;;18.97;100.00;97424.13;4984233;28;20385;-79
2022/07/07 04:19:41;;;;;;;;;;;;;;;19.04;100.00;97420.66;5033338;28;19913;-79
2022/07/07 04:22:07;;;;;;;;;;;;;;;19.11;100.00;97429.03;5009363;28;20007;-80
2022/07/07 04:24:32;;;;;;;;;;;;;;;19.13;100.00;97424.34;5043581;28;19972;-80
2022/07/07 04:26:57;;;;;;;;;;;;;;;19.16;100.00;97434.88;5040420;28;19913;-79
2022/07/07 04:29:23;;;;;;;;;;;;;;;19.41;100.00;97423.34;5011512;28;19963;-78
2022/07/07 04:31:48;;;;;;;;;;;;;;;19.71;100.00;97424.84;4994495;28;20373;-78
2022/07/07 04:34:14;;;;;;;;;;;;;;;19.97;100.00;97425.75;4976800;28;19913;-79
2022/07/07 04:36:39;;;;;;;;;;;;;;;19.87;100.00;97427.72;4987705;28;20393;-80
2022/07/07 04:39:05;;;;;;;;;;;;;;;19.87;100.00;97428.56;4991163;28;20310;-78
2022/07/07 04:41:30;;;;;;;;;;;;;;;20.10;100.00;97438.94;4981521;28;20312;-78
2022/07/07 04:43:55;;;;;;;;;;;;;;;20.27;100.00;97433.50;4985658;28;19922;-80
2022/07/07 04:46:21;;;;;;;;;;;;;;;20.38;100.00;97429.69;4988665;28;19936;-82
2022/07/07 04:48:46;;;;;;;;;;;;;;;20.42;100.00;97434.69;4992008;28;20012;-82
2022/07/07 04:51:13;;;;;;;;;;;;;;;20.61;100.00;97436.31;4992097;28;19948;-82
2022/07/07 04:53:38;;;;;;;;;;;;;;;20.90;100.00;97430.53;4991038;28;19973;-82
2022/07/07 04:56:04;;;;;;;;;;;;;;;21.57;100.00;97429.63;4986815;28;19913;-83
2022/07/07 04:58:29;;;;;;;;;;;;;;;22.38;100.00;97435.22;4982435;28;20354;-82
2022/07/07 05:00:54;;;;;;;;;;;;;;;23.48;99.08;97435.31;4990832;28;20370;-82
2022/07/07 05:03:20;;;;;;;;;;;;;;;24.20;92.72;97448.59;4990617;28;20023;-81
2022/07/07 05:05:45;;;;;;;;;;;;;;;25.44;84.91;97445.31;5005150;28;19914;-82
2022/07/07 05:08:10;;;;;;;;;;;;;;;26.34;76.59;97446.63;4979133;28;19913;-83
2022/07/07 05:10:36;;;;;;;;;;;;;;;27.08;71.83;97442.41;4981494;28;19921;-83
2022/07/07 05:13:01;;;;;;;;;;;;;;;27.54;68.57;97450.09;4981770;28;19917;-82
2022/07/07 05:15:27;;;;;;;;;;;;;;;28.92;63.27;97437.56;4977205;28;19992;-83
2022/07/07 05:17:52;;;;;;;;;;;;;;;27.98;64.78;97447.78;4982654;28;19924;-82
2022/07/07 05:20:17;;;;;;;;;;;;;;;26.68;69.32;97462.34;4985491;28;20393;-81
2022/07/07 05:22:43;;;;;;;;;;;;;;;25.57;73.95;97461.94;4988973;28;20134;-81
2022/07/07 05:25:08;;;;;;;;;;;;;;;24.04;82.01;97459.59;4984763;28;20361;-81
2022/07/07 05:27:34;;;;;;;;;;;;;;;23.07;89.48;97454.56;4988403;28;19917;-79
2022/07/07 05:29:59;;;;;;;;;;;;;;;24.32;86.98;97449.00;4973250;28;19921;-81
2022/07/07 05:32:25;;;;;;;;;;;;;;;26.29;75.27;97449.13;4996378;28;19987;-82
2022/07/07 05:34:50;;;;;;;;;;;;;;;27.52;69.53;97446.72;5010986;28;19917;-81
2022/07/07 05:37:15;;;;;;;;;;;;;;;27.93;66.64;97450.31;5014110;28;19921;-82
2022/07/07 05:39:41;;;;;;;;;;;;;;;27.77;65.93;97454.25;5014888;28;19909;-83
2022/07/07 05:42:06;;;;;;;;;;;;;;;26.87;69.21;97456.22;5014504;28;19945;-82
2022/07/07 05:44:32;;;;;;;;;;;;;;;27.22;68.85;97452.47;5014997;28;20438;-82
2022/07/07 05:46:57;;;;;;;;;;;;;;;26.38;70.89;97459.75;5014752;28;19909;-81
2022/07/07 05:49:23;;;;;;;;;;;;;;;26.27;71.64;97457.53;5015129;28;19917;-82
2022/07/07 05:51:48;;;;;;;;;;;;;;;25.12;78.21;97461.09;5014362;28;19921;-82
2022/07/07 05:54:14;;;;;;;;;;;;;;;25.09;78.80;97456.00;5002044;28;19940;-80
2022/07/07 05:56:39;;;;;;;;;;;;;;;24.69;81.28;97450.88;5013737;28;19914;-81
2022/07/07 05:59:05;;;;;;;;;;;;;;;24.50;82.93;97459.59;4994428;28;19957;-81
2022/07/07 06:01:31;;;;;;;;;;;;;;;24.27;84.00;97460.47;5002009;28;19944;-81
2022/07/07 06:03:56;;;;;;;;;;;;;;;24.44;84.16;97460.34;5013124;28;19981;-79
2022/07/07 06:06:21;;;;;;;;;;;;;;;24.56;84.54;97453.41;5008129;28;19913;-81
2022/07/07 06:08:47;;;;;;;;;;;;;;;25.10;81.31;97454.94;5011473;28;20416;-81
2022/07/07 06:11:12;;;;;;;;;;;;;;;25.17;79.81;97455.88;5008077;28;19928;-81
2022/07/07 06:13:38;;;;;;;;;;;;;;;25.22;80.17;97467.16;5011900;28;20004;-81
2022/07/07 06:16:03;;;;;;;;;;;;;;;25.21;80.68;97465.44;5011991;28;20363;-83
2022/07/07 06:18:29;;;;;;;;;;;;;;;25.00;80.67;97469.94;5012067;28;20036;-81
2022/07/07 06:20:59;;;;;;;;;;;;;;;24.80;81.79;97469.59;5010498;28;19964;-81
2022/07/07 06:23:24;;;;;;;;;;;;;;;25.52;78.73;97464.41;5007534;28;19975;-81
2022/07/07 06:25:49;;;;;;;;;;;;;;;25.79;76.64;97467.28;5010976;28;19917;-80
2022/07/07 06:28:15;;;;;;;;;;;;;;;25.88;75.86;97476.25;5011612;28;19956;-81
2022/07/07 06:30:40;;;;;;;;;;;;;;;26.36;74.99;97480.22;5003267;28;19941;-79
2022/07/07 06:33:06;;;;;;;;;;;;;;;28.29;67.34;97472.03;5011050;28;19972;-81
2022/07/07 06:35:32;;;;;;;;;;;;;;;30.60;58.56;97460.38;4995967;28;19913;-81
2022/07/07 06:37:57;;;;;;;;;;;;;;;31.73;54.72;97461.06;5012051;28;19947;-81
2022/07/07 06:40:23;;;;;;;;;;;;;;;33.10;50.11;97452.78;4994793;28;19928;-80
2022/07/07 06:42:48;;;;;;;;;;;;;;;34.53;46.13;97445.41;5011141;28;19927;-81
2022/07/07 06:45:13;;;;;;;;;;;;;;;35.38;43.41;97438.88;5025418;28;19925;-81
2022/07/07 06:47:39;;;;;;;;;;;;;;;35.83;40.44;97428.41;5009856;28;20364;-81
2022/07/07 06:50:05;;;;;;;;;;;;;;;35.82;40.12;97433.13;5011472;28;19919;-80
2022/07/07 06:52:30;;;;;;;;;;;;;;;35.71;39.32;97431.31;5011633;28;19968;-80
2022/07/07 06:54:55;;;;;;;;;;;;;;;35.98;38.47;97431.38;5011057;28;19924;-81
2022/07/07 06:57:21;;;;;;;;;;;;;;;35.34;39.79;97441.31;5009922;28;19944;-81
2022/07/07 06:59:46;;;;;;;;;;;;;;;33.08;39.98;97433.59;5003402;28;19913;-81
2022/07/07 07:02:11;;;;;;;;;;;;;;;31.66;39.97;97437.09;5010938;28;19914;-81
2022/07/07 07:04:37;;;;;;;;;;;;;;;30.76;39.33;97434.13;4998984;28;20640;-81
2022/07/07 07:07:02;;;;;;;;;;;;;;;30.79;39.82;97434.50;5009068;28;20004;-81
2022/07/07 07:09:28;;;;;;;;;;;;;;;30.36;41.09;97439.91;5010702;28;19917;-80
2022/07/07 07:11:54;;;;;;;;;;;;;;;29.72;43.89;97447.41;4992987;28;19917;-81
2022/07/07 07:14:20;;;;;;;;;;;;;;;29.46;43.98;97449.19;4994398;28;19972;-81
2022/07/07 07:16:45;;;;;;;;;;;;;;;29.05;44.82;97454.09;5010586;28;20400;-81
2022/07/07 07:19:11;;;;;;;;;;;;;;;29.18;45.04;97456.00;4994290;28;19913;-80
2022/07/07 07:21:36;;;;;;;;;;;;;;;30.01;44.10;97452.41;4994012;28;19917;-81
2022/07/07 07:24:02;;;;;;;;;;;;;;;32.30;41.14;97451.44;4994114;28;19944;-80
2022/07/07 07:26:27;;;;;;;;;;;;;;;33.02;37.84;97425.34;4994324;28;19947;-81
2022/07/07 07:28:53;;;;;;;;;;;;;;;32.90;38.22;97428.13;4994125;28;19932;-81
2022/07/07 07:31:18;;;;;;;;;;;;;;;34.78;36.08;97423.66;5010477;28;19913;-81
2022/07/07 07:33:43;;;;;;;;;;;;;;;34.48;35.59;97422.25;5005153;28;19921;-81
2022/07/07 07:36:09;;;;;;;;;;;;;;;35.13;35.11;97417.03;5005208;28;19917;-82
2022/07/07 07:38:35;;;;;;;;;;;;;;;36.50;33.18;97422.53;5001831;28;20366;-80
2022/07/07 07:41:02;;;;;;;;;;;;;;;37.21;31.64;97415.72;5006834;28;19920;-80
2022/07/07 07:43:27;;;;;;;;;;;;;;;38.06;30.37;97409.81;5006489;28;19918;-81
2022/07/07 07:45:53;;;;;;;;;;;;;;;39.28;30.04;97416.56;5008327;28;19925;-81
2022/07/07 07:48:18;;;;;;;;;;;;;;;39.25;28.27;97408.72;4996006;28;19913;-80
2022/07/07 07:50:44;;;;;;;;;;;;;;;38.79;28.61;97405.06;4999235;28;20364;-80
2022/07/07 07:53:09;;;;;;;;;;;;;;;37.21;30.71;97401.75;5010013;28;19944;-80
2022/07/07 07:55:35;;;;;;;;;;;;;;;37.18;30.43;97402.28;5010353;28;19909;-79
2022/07/07 07:58:01;;;;;;;;;;;;;;;37.85;28.78;97391.25;5010068;28;19940;-81
2022/07/07 08:00:26;;;;;;;;;;;;;;;37.44;29.78;97396.63;4993097;28;20408;-81
2022/07/07 08:02:51;;;;;;;;;;;;;;;38.21;29.09;97395.91;5008243;28;19917;-81
2022/07/07 08:05:18;;;;;;;;;;;;;;;38.98;28.48;97394.97;5001013;28;19920;-82
2022/07/07 08:07:44;;;;;;;;;;;;;;;38.89;28.54;97402.22;5003920;28;20353;-81
2022/07/07 08:10:11;;;;;;;;;;;;;;;38.48;27.56;97390.16;5009712;28;19921;-80
2022/07/07 08:12:37;;;;;;;;;;;;;;;36.51;29.59;97405.56;5005745;28;20342;-81
2022/07/07 08:15:02;;;;;;;;;;;;;;;34.79;32.13;97405.88;5006659;28;20013;-80
2022/07/07 08:17:28;;;;;;;;;;;;;;;33.52;33.28;97409.94;4999137;28;19918;-81
2022/07/07 08:19:53;;;;;;;;;;;;;;;33.41;33.94;97408.00;5010654;28;20004;-80
2022/07/07 08:22:19;;;;;;;;;;;;;;;31.51;36.65;97417.25;4994970;28;19910;-80
2022/07/07 08:24:44;;;;;;;;;;;;;;;31.37;38.44;97431.44;5005476;28;20423;-81
2022/07/07 08:27:09;;;;;;;;;;;;;;;30.86;38.18;97423.38;5009041;28;19920;-81
2022/07/07 08:29:38;;;;;;;;;;;;;;;30.43;38.88;97431.56;5009674;28;19914;-80
2022/07/07 08:32:07;;;;;;;;;;;;;;;30.39;38.86;97427.59;5003896;28;19928;-79
2022/07/07 08:34:33;;;;;;;;;;;;;;;31.93;37.08;97434.00;5009321;28;19917;-79
2022/07/07 08:36:59;;;;;;;;;;;;;;;32.07;36.58;97427.22;5009244;28;19996;-80
2022/07/07 08:39:24;;;;;;;;;;;;;;;31.96;37.23;97430.78;4993797;28;19913;-81
2022/07/07 08:41:49;;;;;;;;;;;;;;;32.37;36.16;97436.38;5009142;28;19913;-80
2022/07/07 08:44:15;;;;;;;;;;;;;;;33.19;35.02;97423.59;5008971;28;20017;-80
2022/07/07 08:49:52;;;;;;;;;;;;;;;32.50;35.68;97433.44;5011576;28;19964;-81
2022/07/07 08:52:18;;;;;;;;;;;;;;;32.22;35.99;97430.44;4995598;28;19953;-81
2022/07/07 08:54:46;;;;;;;;;;;;;;;32.39;36.24;97434.25;5001650;28;19913;-79
2022/07/07 08:57:12;;;;;;;;;;;;;;;32.40;36.68;97432.28;5010851;28;19913;-80
2022/07/07 08:59:38;;;;;;;;;;;;;;;32.30;36.88;97438.44;4994368;28;19962;-81
2022/07/07 09:02:04;;;;;;;;;;;;;;;31.91;36.83;97436.13;4994234;28;20333;-80
2022/07/07 09:04:29;;;;;;;;;;;;;;;31.61;37.82;97439.69;4994584;28;19918;-81
2022/07/07 09:06:59;;;;;;;;;;;;;;;33.05;35.82;97435.97;4994971;28;19913;-81
2022/07/07 09:09:36;;;;;;;;;;;;;;;33.82;34.63;97431.13;5011142;28;20419;-80
2022/07/07 09:12:03;;;;;;;;;;;;;;;34.89;32.94;97427.44;5004901;28;19913;-81
2022/07/07 09:14:39;;;;;;;;;;;;;;;34.50;32.82;97432.00;5009298;28;19917;-81
2022/07/07 09:17:14;;;;;;;;;;;;;;;33.74;34.67;97426.84;5013418;28;19913;-80
2022/07/07 09:19:39;;;;;;;;;;;;;;;33.38;35.95;97433.47;5009534;28;20387;-81
2022/07/07 09:22:05;;;;;;;;;;;;;;;33.43;34.74;97427.19;5016793;28;20013;-80
2022/07/07 09:24:36;;;;;;;;;;;;;;;33.61;35.32;97436.25;5001833;28;19940;-80
2022/07/07 09:27:01;;;;;;;;;;;;;;;33.94;34.33;97430.03;5019162;28;19913;-80
2022/07/07 09:29:27;;;;;;;;;;;;;;;35.05;32.71;97422.97;5016598;28;19920;-81
2022/07/07 09:31:57;;;;;;;;;;;;;;;35.78;31.42;97423.59;5009386;28;20025;-81
2022/07/07 09:34:34;;;;;;;;;;;;;;;35.54;31.71;97416.53;5042035;28;20282;-82
2022/07/07 09:39:46;;;;;;;;;;;;;;;34.46;32.80;97411.34;5004940;28;20257;-81
2022/07/07 09:42:26;;;;;;;;;;;;;;;34.38;33.04;97411.78;5000678;28;19917;-81
2022/07/07 09:45:00;;;;;;;;;;;;;;;33.50;33.94;97403.78;5003363;28;19940;-80
2022/07/07 09:47:25;;;;;;;;;;;;;;;33.35;35.00;97414.53;5003505;28;19944;-88
2022/07/07 09:49:59;;;;;;;;;;;;;;;33.19;35.30;97404.19;5002745;28;19909;-89
2022/07/07 09:52:24;;;;;;;;;;;;;;;33.79;33.82;97407.50;5014864;28;19913;-88
2022/07/07 09:54:50;;;;;;;;;;;;;;;34.51;33.91;97405.91;4989045;28;19971;-87
2022/07/07 09:57:16;;;;;;;;;;;;;;;34.62;33.28;97398.63;5039324;28;20396;-86
2022/07/07 09:59:41;;;;;;;;;;;;;;;36.15;32.16;97403.47;5037834;28;20447;-88
2022/07/07 10:02:08;;;;;;;;;;;;;;;37.21;29.89;97393.38;5039280;28;19913;-88
2022/07/07 10:04:34;;;;;;;;;;;;;;;37.81;30.00;97392.94;5047468;28;19914;-89
2022/07/07 10:06:59;;;;;;;;;;;;;;;38.16;29.47;97387.50;5009593;28;19925;-89
2022/07/07 10:09:25;;;;;;;;;;;;;;;36.39;30.70;97386.19;5004542;28;19952;-89
2022/07/07 10:11:51;;;;;;;;;;;;;;;35.51;31.72;97388.38;5019239;28;19913;-90
2022/07/07 10:14:18;;;;;;;;;;;;;;;35.76;31.64;97388.75;5004271;28;20373;-90
2022/07/07 10:16:44;;;;;;;;;;;;;;;35.53;32.59;97394.53;5015708;28;19913;-89
2022/07/07 10:19:11;;;;;;;;;;;;;;;37.28;29.81;97375.31;5014838;28;20004;-90
2022/07/07 10:21:36;;;;;;;;;;;;;;;38.99;28.82;97374.25;5018065;28;19913;-90
2022/07/07 10:24:02;;;;;;;;;;;;;;;40.30;26.46;97373.13;5032402;28;19925;-90
2022/07/07 10:26:34;;;;;;;;;;;;;;;41.08;26.37;97363.59;5013644;28;19917;-90
2022/07/07 10:29:00;;;;;;;;;;;;;;;41.87;25.30;97356.59;5006504;28;20401;-89
2022/07/07 10:31:26;;;;;;;;;;;;;;;42.19;25.52;97375.63;4998937;28;19921;-90
2022/07/07 10:34:06;;;;;;;;;;;;;;;42.86;23.96;97365.91;4999285;28;19925;-90
2022/07/07 10:36:50;;;;;;;;;;;;;;;41.95;24.85;97372.00;5016888;28;19968;-90
2022/07/07 10:39:22;;;;;;;;;;;;;;;40.68;25.97;97374.28;5025779;28;19965;-89
2022/07/07 10:42:04;;;;;;;;;;;;;;;39.31;26.80;97359.97;5008046;28;20360;-90
2022/07/07 10:44:31;;;;;;;;;;;;;;;38.32;28.71;97364.09;5016031;28;19917;-91
2022/07/07 10:47:22;;;;;;;;;;;;;;;38.61;27.64;97358.81;5016702;28;19917;-91
2022/07/07 10:49:49;;;;;;;;;;;;;;;38.43;27.94;97359.34;5024577;28;19913;-90
2022/07/07 10:52:19;;;;;;;;;;;;;;;37.92;28.44;97352.78;5006335;28;19988;-90
2022/07/07 10:54:51;;;;;;;;;;;;;;;36.73;30.14;97350.56;5015682;28;19913;-91
2022/07/07 10:57:17;;;;;;;;;;;;;;;37.80;29.76;97350.19;5008667;28;19920;-91
2022/07/07 11:00:00;;;;;;;;;;;;;;;38.58;27.79;97334.19;5016230;28;19917;-91
2022/07/07 11:02:32;;;;;;;;;;;;;;;39.07;27.30;97333.69;5015518;28;19917;-89
2022/07/07 11:04:57;;;;;;;;;;;;;;;37.07;28.70;97322.41;5000118;28;19960;-90
2022/07/07 11:07:24;;;;;;;;;;;;;;;35.60;31.01;97334.81;5006831;28;20351;-90
2022/07/07 11:09:59;;;;;;;;;;;;;;;36.26;29.95;97332.81;5032260;28;19940;-89
2022/07/07 11:12:41;;;;;;;;;;;;;;;37.55;28.46;97332.47;5000475;28;19918;-88
2022/07/07 11:15:21;;;;;;;;;;;;;;;37.06;28.79;97320.72;5005144;28;19913;-89
2022/07/07 11:17:48;;;;;;;;;;;;;;;36.26;29.89;97322.53;5008737;28;20027;-88
2022/07/07 11:20:14;;;;;;;;;;;;;;;37.77;27.82;97313.59;5009099;28;19924;-88
2022/07/07 11:22:47;;;;;;;;;;;;;;;38.55;27.80;97315.19;5006184;28;19917;-88
2022/07/07 11:25:13;;;;;;;;;;;;;;;37.83;27.31;97316.13;5001745;28;19985;-88
2022/07/07 11:27:42;;;;;;;;;;;;;;;38.67;26.72;97315.75;4998269;28;20304;-87
2022/07/07 11:30:07;;;;;;;;;;;;;;;39.28;26.23;97313.78;5014389;28;19913;-87
2022/07/07 11:32:40;;;;;;;;;;;;;;;38.95;25.97;97301.22;4997579;28;20434;-88
2022/07/07 11:35:06;;;;;;;;;;;;;;;38.65;25.96;97298.41;5013389;28;19914;-88
2022/07/07 11:37:32;;;;;;;;;;;;;;;39.68;26.29;97301.63;5002046;28;19921;-89
2022/07/07 11:39:57;;;;;;;;;;;;;;;40.52;23.56;97286.56;5014378;28;19917;-89
2022/07/07 11:42:23;;;;;;;;;;;;;;;40.13;24.31;97283.75;5014688;28;19924;-89
2022/07/07 11:44:49;;;;;;;;;;;;;;;40.41;23.25;97266.16;5014050;28;19957;-90
2022/07/07 11:47:15;;;;;;;;;;;;;;;41.42;23.03;97267.22;5014168;28;19913;-89
2022/07/07 11:49:40;;;;;;;;;;;;;;;41.46;22.88;97271.09;5014545;28;19913;-89
2022/07/07 11:52:06;;;;;;;;;;;;;;;38.68;26.01;97271.84;4999011;28;19908;-89
2022/07/07 11:54:31;;;;;;;;;;;;;;;37.57;27.25;97280.81;4999169;28;19929;-89
2022/07/07 11:56:58;;;;;;;;;;;;;;;38.69;26.07;97274.38;5013724;28;19929;-87
2022/07/07 11:59:23;;;;;;;;;;;;;;;39.80;25.28;97268.50;5013999;28;20294;-88
2022/07/07 12:01:53;;;;;;;;;;;;;;;40.44;24.39;97259.13;4996983;28;19913;-90
2022/07/07 12:04:22;;;;;;;;;;;;;;;40.90;23.39;97246.38;5013690;28;20412;-89
2022/07/07 12:06:48;;;;;;;;;;;;;;;40.51;23.83;97256.84;5014493;28;20003;-90
2022/07/07 12:09:13;;;;;;;;;;;;;;;40.30;24.06;97253.34;5008213;28;19928;-89
2022/07/07 12:11:39;;;;;;;;;;;;;;;39.95;24.06;97257.22;5000062;28;20040;-88
2022/07/07 12:14:05;;;;;;;;;;;;;;;40.21;23.90;97254.28;5011796;28;19921;-88
2022/07/07 12:16:40;;;;;;;;;;;;;;;40.51;23.36;97251.22;5012977;28;19968;-88
2022/07/07 12:19:06;;;;;;;;;;;;;;;40.18;23.96;97252.88;5013415;28;20320;-89
2022/07/07 12:21:31;;;;;;;;;;;;;;;40.00;23.77;97251.56;5012833;28;19914;-89
2022/07/07 12:23:56;;;;;;;;;;;;;;;40.20;23.34;97239.41;5011952;28;19917;-88
2022/07/07 12:26:25;;;;;;;;;;;;;;;40.45;23.55;97241.19;5015205;28;19913;-89
2022/07/07 12:28:51;;;;;;;;;;;;;;;40.28;23.54;97240.75;5012456;28;19913;-91
2022/07/07 12:31:20;;;;;;;;;;;;;;;40.60;22.84;97238.28;5014813;28;19913;-87
2022/07/07 12:33:45;;;;;;;;;;;;;;;40.26;23.68;97237.41;5013428;28;20373;-90
2022/07/07 12:36:11;;;;;;;;;;;;;;;40.37;23.43;97238.97;5006164;28;20056;-90
2022/07/07 12:38:38;;;;;;;;;;;;;;;38.58;25.26;97238.28;5030121;28;19913;-88
2022/07/07 12:41:03;;;;;;;;;;;;;;;39.56;23.92;97234.69;5003705;28;19914;-90
2022/07/07 12:43:32;;;;;;;;;;;;;;;39.76;23.78;97239.38;5008342;28;19924;-90
2022/07/07 12:46:05;;;;;;;;;;;;;;;39.71;23.76;97239.44;5008319;28;19917;-88
2022/07/07 12:48:31;;;;;;;;;;;;;;;38.88;25.47;97236.31;5003459;28;19920;-90